Flight Track Log - Related Links

Times and Time Zones

All times are in EDT time to prevent confusion due to time zone crossing. See the UAL1177 flight status page for this flight to view local times or setup timezone preferences in your user account.

Time Position Orientation Groundspeed Altitude Reporting Facility
EDT Latitude Longitude Course Direction KTS MPH feet Rate Location/Type
Wed 03:32:03 PM 37.6500 -122.3333 67° East 178 205 1,800  Level Northern Cal TRACON
Wed 03:32:57 PM 37.6833 -122.2833 50° Northeast 225 259 4,500 3,000 Climbing Northern Cal TRACON
Wed 03:34:05 PM 37.7214 -122.2169 54° Northeast 242 278 7,900 3,070 Climbing Oakland Center
Wed 03:35:00 PM 37.6503 -122.2487 72° East  Level FlightAware Approximate
Wed 03:35:06 PM 37.7522 -122.1086 70° East 273 314 11,100  Level Oakland Center
Wed 03:36:00 PM 37.7052 -122.0986 70° East  Level FlightAware Approximate
Wed 03:36:08 PM 37.7825 -122.0025 70° East 315 362 14,400  Level Oakland Center
Wed 03:37:00 PM 37.7510 -121.9469 67° East  Level FlightAware Approximate
Wed 03:37:09 PM 37.8153 -121.8936 69° East 331 381 17,000  Level Oakland Center
Wed 03:38:10 PM 37.8436 -121.7733 73° East 356 410 19,300 2,244 Climbing Oakland Center
Wed 03:39:12 PM 37.8653 -121.6439 78° East 377 434 21,600 2,146 Climbing Oakland Center
Wed 03:40:13 PM 37.8881 -121.5094 78° East 389 448 23,700 2,066 Climbing Oakland Center
Wed 03:41:14 PM 37.9139 -121.3608 78° East 411 473 25,800 1,902 Climbing Oakland Center
Wed 03:42:16 PM 37.9381 -121.2156 78° East 422 486 27,600 1,805 Climbing Oakland Center
Wed 03:43:17 PM 37.9633 -121.0672 78° East 431 496 29,500 1,820 Climbing Oakland Center
Wed 03:44:18 PM 37.9872 -120.9200 78° East 430 495 31,300 1,770 Climbing Oakland Center
Wed 03:45:19 PM 38.0167 -120.7436 78° East 429 494 33,100 1,463 Climbing Oakland Center
Wed 03:46:21 PM 38.0406 -120.5936 79° East 434 499 34,300 1,122 Climbing Oakland Center
Wed 03:47:22 PM 38.0644 -120.4417 79° East 441 507 35,400 1,033 Climbing Oakland Center
Wed 03:48:23 PM 38.0883 -120.2889 79° East 443 510 36,400 732 Climbing Oakland Center
Wed 03:49:25 PM 38.1136 -120.1331 78° East 451 519 36,900 293 Climbing Oakland Center
Wed 03:50:26 PM 38.1389 -119.9758 78° East 456 525 37,000 49 Climbing Oakland Center
Wed 03:51:27 PM 38.1617 -119.8161 80° East 463 533 37,000  Level Oakland Center
Wed 03:52:29 PM 38.1872 -119.6589 78° East 457 526 37,000  Level Oakland Center
Wed 03:53:30 PM 38.2108 -119.5022 79° East 454 522 37,000  Level Oakland Center
Wed 03:54:32 PM 38.2389 -119.3078 80° East 461 531 37,000  Level Oakland Center
Wed 03:55:33 PM 38.2628 -119.1467 79° East 465 535 37,000  Level Oakland Center
Wed 03:56:34 PM 38.2861 -118.9869 79° East 462 532 37,000  Level Oakland Center
Wed 03:57:36 PM 38.3086 -118.8292 80° East 456 525 37,000  Level Oakland Center
Wed 03:58:37 PM 38.3314 -118.6700 80° East 458 527 37,000  Level Oakland Center
Wed 03:59:38 PM 38.3542 -118.5111 80° East 458 527 37,000  Level Oakland Center
Wed 04:00:39 PM 38.3761 -118.3556 80° East 451 519 37,000  Level Oakland Center
Wed 04:01:41 PM 38.3983 -118.1975 80° East 453 521 37,000  Level Oakland Center
Wed 04:02:42 PM 38.4247 -118.0108 80° East 451 519 37,000  Level Oakland Center
Wed 04:03:43 PM 38.4453 -117.8500 81° East 456 525 37,000  Level Oakland Center
Wed 04:04:45 PM 38.4681 -117.6889 80° East 459 528 37,000  Level Oakland Center
Wed 04:05:46 PM 38.4894 -117.5258 80° East 462 532 37,000  Level Oakland Center
Wed 04:06:47 PM 38.5111 -117.3614 80° East 464 534 37,000  Level Oakland Center
Wed 04:07:03 PM 38.5147 -117.3278 82° East 463 533 37,000  Level Salt Lake Center
Wed 04:08:05 PM 38.5167 -117.1581 89° East 480 552 37,000  Level Salt Lake Center
Wed 04:08:50 PM 38.5150 -117.0206 91° East 482 555 37,000  Level Oakland Center
Wed 04:09:51 PM 38.5106 -116.8478 92° East 482 555 37,000  Level Oakland Center
Wed 04:10:53 PM 38.5067 -116.6733 92° East 487 560 37,000  Level Oakland Center
Wed 04:11:54 PM 38.5022 -116.5019 92° East 483 556 37,000  Level Oakland Center
Wed 04:12:11 PM 38.5000 -116.4675 95° East 484 557 37,000  Level Salt Lake Center
Wed 04:12:55 PM 38.4975 -116.3286 91° East 486 559 37,000  Level Oakland Center
Wed 04:13:57 PM 38.4919 -116.1564 92° East 484 557 37,000  Level Oakland Center
Wed 04:14:14 PM 38.4886 -116.0881 94° East 486 559 37,000  Level Salt Lake Center
Wed 04:15:15 PM 38.4833 -115.9175 92° East 483 556 37,000  Level Salt Lake Center
Wed 04:16:17 PM 38.4772 -115.7478 93° East 480 552 37,000  Level Salt Lake Center
Wed 04:17:18 PM 38.4733 -115.5789 92° East 477 549 37,000  Level Salt Lake Center
Wed 04:18:19 PM 38.4664 -115.4131 93° East 471 542 37,000  Level Salt Lake Center
Wed 04:19:21 PM 38.4628 -115.2350 91° East 474 545 37,000  Level Salt Lake Center
Wed 04:20:22 PM 38.4567 -115.0667 93° East 475 547 37,000  Level Salt Lake Center
Wed 04:21:23 PM 38.4497 -114.9008 93° East 472 543 37,000  Level Salt Lake Center
Wed 04:22:25 PM 38.4439 -114.7317 92° East 475 547 37,000  Level Salt Lake Center
Wed 04:23:26 PM 38.4367 -114.5639 93° East 475 547 37,000  Level Salt Lake Center
Wed 04:24:27 PM 38.4292 -114.3969 93° East 473 544 37,000  Level Salt Lake Center
Wed 04:25:29 PM 38.4214 -114.2281 93° East 477 549 37,000  Level Salt Lake Center
Wed 04:26:30 PM 38.4133 -114.0275 93° East 473 544 37,000  Level Salt Lake Center
Wed 04:27:32 PM 38.4058 -113.8586 93° East 476 548 37,000  Level Salt Lake Center
Wed 04:28:33 PM 38.3969 -113.6928 94° East 471 542 37,000  Level Salt Lake Center
Wed 04:29:34 PM 38.3889 -113.5244 93° East 474 545 37,000  Level Salt Lake Center
Wed 04:30:36 PM 38.3797 -113.3531 94° East 481 554 37,000  Level Salt Lake Center
Wed 04:32:38 PM 38.3631 -113.0108 93° East 483 556 37,000  Level Salt Lake Center
Wed 04:33:40 PM 38.3919 -112.8436 78° East 481 554 37,000  Level Salt Lake Center
Wed 04:34:41 PM 38.4239 -112.6778 76° East 480 552 37,000  Level Salt Lake Center
Wed 04:35:43 PM 38.4533 -112.5100 77° East 482 555 37,000  Level Salt Lake Center
Wed 04:36:44 PM 38.4897 -112.3100 77° East 483 556 37,000  Level Salt Lake Center
Wed 04:37:45 PM 38.5194 -112.1442 77° East 479 551 37,000  Level Salt Lake Center
Wed 04:38:47 PM 38.5497 -111.9797 77° East 478 550 37,000  Level Salt Lake Center
Wed 04:39:48 PM 38.5781 -111.8131 78° East 479 551 37,000  Level Salt Lake Center
Wed 04:40:50 PM 38.6075 -111.6464 77° East 481 554 37,000  Level Salt Lake Center
Wed 04:41:51 PM 38.6350 -111.4789 78° East 482 555 37,000  Level Salt Lake Center
Wed 04:42:53 PM 38.6639 -111.3108 78° East 484 557 37,000  Level Salt Lake Center
Wed 04:43:54 PM 38.6928 -111.1450 77° East 480 552 37,000  Level Salt Lake Center
Wed 04:44:55 PM 38.7203 -110.9783 78° East 478 550 37,000  Level Salt Lake Center
Wed 04:45:57 PM 38.7533 -110.7808 78° East 475 547 37,000  Level Salt Lake Center
Wed 04:46:58 PM 38.7786 -110.6208 78° East 478 550 37,000  Level Salt Lake Center
Wed 04:48:00 PM 38.8053 -110.4603 78° East 480 552 37,000  Level Salt Lake Center
Wed 04:49:01 PM 38.8361 -110.2731 78° East 482 555 37,000  Level Salt Lake Center
Wed 04:49:25 PM 38.8417 -110.2161 83° East 483 556 37,000  Level Denver Center
Wed 04:50:03 PM 38.8608 -110.1114 77° East 483 556 37,000  Level Salt Lake Center
Wed 04:51:04 PM 38.8906 -109.9222 79° East 485 558 37,000  Level Salt Lake Center
Wed 04:51:28 PM 38.8986 -109.8656 80° East 485 558 37,000  Level Denver Center
Wed 04:52:29 PM 38.9222 -109.7019 79° East 486 559 37,000  Level Denver Center
Wed 04:53:30 PM 38.9514 -109.5103 79° East 491 565 37,000  Level Denver Center
Wed 04:54:32 PM 38.9744 -109.3497 79° East 481 554 37,000  Level Denver Center
Wed 04:55:33 PM 39.0028 -109.1625 79° East 480 552 37,000  Level Denver Center
Wed 04:56:34 PM 39.0272 -109.0019 79° East 481 554 37,000  Level Denver Center
Wed 04:57:36 PM 39.0550 -108.8133 79° East 483 556 37,000  Level Denver Center
Wed 04:58:37 PM 39.0875 -108.6542 75° East 485 558 37,000  Level Denver Center
Wed 04:59:38 PM 39.1208 -108.4931 75° East 489 563 37,000  Level Denver Center
Wed 05:00:40 PM 39.1600 -108.3056 75° East 491 565 37,000  Level Denver Center
Wed 05:01:41 PM 39.1936 -108.1428 75° East 495 570 37,000  Level Denver Center
Wed 05:02:42 PM 39.2319 -107.9536 75° East 492 566 37,000  Level Denver Center
Wed 05:03:44 PM 39.2642 -107.7897 76° East 494 568 37,000  Level Denver Center
Wed 05:04:45 PM 39.3019 -107.6008 75° East 489 563 37,000  Level Denver Center
Wed 05:05:46 PM 39.3342 -107.4397 75° East 487 560 37,000  Level Denver Center
Wed 05:06:48 PM 39.3661 -107.2781 76° East 487 560 37,000  Level Denver Center
Wed 05:07:49 PM 39.4025 -107.0903 76° East 483 556 37,000  Level Denver Center
Wed 05:08:50 PM 39.4314 -106.9322 77° East 475 547 37,000 244 Level Denver Center
Wed 05:09:52 PM 39.4581 -106.7369 80° East 494 568 37,500 634 Climbing Denver Center
Wed 05:10:53 PM 39.4783 -106.5664 81° East 502 578 38,300 738 Climbing Denver Center
Wed 05:11:54 PM 39.4983 -106.3997 81° East 502 578 39,000 341 Climbing Denver Center
Wed 05:12:56 PM 39.5189 -106.2189 81° East 505 581 39,000  Level Denver Center
Wed 05:13:00 PM 39.5043 -106.2172 81° East  Level FlightAware Approximate
Wed 05:13:57 PM 39.5389 -106.0294 82° East 502 578 39,000  Level Denver Center
Wed 05:14:58 PM 39.5594 -105.8481 82° East 505 581 39,000  Level Denver Center
Wed 05:16:00 PM 39.5800 -105.6658 82° East 503 579 39,000  Level Denver Center
Wed 05:17:01 PM 39.6036 -105.4539 82° East 503 579 39,000  Level Denver Center
Wed 05:18:02 PM 39.6222 -105.2733 82° East 499 574 39,000  Level Denver Center
Wed 05:19:04 PM 39.6411 -105.0958 82° East 493 567 39,000  Level Denver Center
Wed 05:20:05 PM 39.6597 -104.9189 82° East 483 556 39,000  Level Denver Center
Wed 05:21:06 PM 39.6775 -104.7375 83° East 527 606 39,000  Level Denver Center
Wed 05:22:08 PM 39.6875 -104.5814 85° East 481 554 39,000  Level Denver Center
Wed 05:23:09 PM 39.6706 -104.4058 97° East 483 556 39,000  Level Denver Center
Wed 05:24:10 PM 39.6542 -104.2331 97° East 474 545 39,000  Level Denver Center
Wed 05:25:12 PM 39.6344 -104.0289 97° East 491 565 39,000  Level Denver Center
Wed 05:26:13 PM 39.6172 -103.8572 97° East 476 548 39,000  Level Denver Center
Wed 05:27:14 PM 39.6011 -103.6872 97° East 466 536 39,000  Level Denver Center
Wed 05:28:16 PM 39.5847 -103.5133 97° East 480 552 39,000  Level Denver Center
Wed 05:29:17 PM 39.5664 -103.3397 98° East 482 555 39,000  Level Denver Center
Wed 05:30:19 PM 39.5500 -103.1675 97° East 479 551 39,000  Level Denver Center
Wed 05:31:20 PM 39.5319 -102.9958 98° East 478 550 39,000  Level Denver Center
Wed 05:32:21 PM 39.5147 -102.8247 97° East 476 548 39,000  Level Denver Center
Wed 05:33:23 PM 39.4947 -102.6539 99° East 476 548 39,000  Level Denver Center
Wed 05:34:25 PM 39.4764 -102.4822 98° East 478 550 39,000  Level Denver Center
Wed 05:35:25 PM 39.4567 -102.3019 98° East 475 547 39,000  Level Denver Center
Wed 05:36:27 PM 39.4381 -102.1386 98° East 479 551 39,000  Level Denver Center
Wed 05:37:28 PM 39.4172 -101.9500 98° East 476 548 39,000  Level Denver Center
Wed 05:38:30 PM 39.3986 -101.7867 98° East 481 554 39,000  Level Denver Center
Wed 05:39:31 PM 39.3775 -101.5947 98° East 483 556 39,000  Level Denver Center
Wed 05:40:33 PM 39.3625 -101.4322 97° East 478 550 39,000  Level Denver Center
Wed 05:41:34 PM 39.3469 -101.2711 97° East 473 544 39,000  Level Denver Center
Wed 05:42:35 PM 39.3283 -101.0839 97° East 474 545 39,000  Level Denver Center
Wed 05:43:37 PM 39.3114 -100.9253 98° East 470 541 39,000  Level Denver Center
Wed 05:44:38 PM 39.2925 -100.7400 97° East 467 537 39,000  Level Denver Center
Wed 05:45:40 PM 39.2764 -100.5828 97° East 464 534 39,000  Level Denver Center
Wed 05:46:41 PM 39.2564 -100.4003 98° East 462 532 39,000  Level Denver Center
Wed 05:47:43 PM 39.2403 -100.2464 98° East 456 525 39,000  Level Denver Center
Wed 05:48:44 PM 39.2233 -100.0919 98° East 455 524 39,000  Level Denver Center
Wed 05:49:46 PM 39.2044 -99.9217 98° East 448 516 39,000  Level Denver Center
Wed 05:50:47 PM 39.1872 -99.7681 98° East 451 519 39,000  Level Denver Center
Wed 05:51:49 PM 39.1675 -99.5903 98° East 451 519 39,000  Level Denver Center
Wed 05:52:50 PM 39.1489 -99.4386 99° East 449 517 39,000  Level Denver Center
Wed 05:53:51 PM 39.1292 -99.2608 98° East 449 517 39,000  Level Denver Center
Wed 05:54:53 PM 39.1117 -99.1081 98° East 450 518 39,000  Level Denver Center
Wed 05:55:54 PM 39.0911 -98.9408 99° East 455 524 39,000  Level Denver Center
Wed 05:56:56 PM 39.0714 -98.7800 99° East 456 525 39,000  Level Denver Center
Wed 05:57:51 PM 39.0544 -98.6397 99° East 459 528 39,000  Level Kansas City Center
Wed 05:58:56 PM 39.0089 -98.4953 112° Southeast 434 499 39,000  Level Kansas City Center
Wed 05:59:57 PM 38.9461 -98.3628 121° Southeast 432 497 39,000  Level Kansas City Center
Wed 06:00:57 PM 38.8486 -98.2333 134° Southeast 422 486 39,000  Level Kansas City Center
Wed 06:02:01 PM 38.7664 -98.1250 134° Southeast 423 487 39,000  Level Kansas City Center
Wed 06:03:02 PM 38.6833 -98.0183 135° Southeast 422 486 39,000  Level Kansas City Center
Wed 06:04:03 PM 38.5978 -97.9133 136° Southeast 423 487 39,000  Level Kansas City Center
Wed 06:05:05 PM 38.5061 -97.8189 141° Southeast 422 486 39,000  Level Kansas City Center
Wed 06:06:06 PM 38.4144 -97.7242 141° Southeast 422 486 39,000  Level Kansas City Center
Wed 06:07:10 PM 38.3217 -97.6278 141° Southeast 426 490 39,000  Level Kansas City Center
Wed 06:08:12 PM 38.2278 -97.5331 142° Southeast 427 491 39,000  Level Kansas City Center
Wed 06:09:12 PM 38.1153 -97.4219 142° Southeast 424 488 39,000  Level Kansas City Center
Wed 06:10:14 PM 38.0236 -97.3258 140° Southeast 424 488 39,000  Level Kansas City Center
Wed 06:11:18 PM 37.9378 -97.2183 135° Southeast 432 497 39,000  Level Kansas City Center
Wed 06:12:19 PM 37.8981 -97.0639 108° East 466 536 39,000  Level Kansas City Center
Wed 06:13:19 PM 37.8958 -96.8969 91° East 474 545 39,000  Level Kansas City Center
Wed 06:14:21 PM 37.8872 -96.7361 94° East 461 531 39,000  Level Kansas City Center
Wed 06:15:24 PM 37.8822 -96.5742 92° East 461 531 39,000  Level Kansas City Center
Wed 06:16:26 PM 37.8764 -96.3797 92° East 462 532 39,000  Level Kansas City Center
Wed 06:17:27 PM 37.8717 -96.2181 92° East 461 531 39,000  Level Kansas City Center
Wed 06:18:30 PM 37.8672 -96.0600 92° East 459 528 39,000  Level Kansas City Center
Wed 06:19:31 PM 37.8772 -95.9006 85° East 462 532 39,000  Level Kansas City Center
Wed 06:20:32 PM 37.9219 -95.7475 70° East 462 532 39,000  Level Kansas City Center
Wed 06:21:36 PM 37.9706 -95.5753 70° East 467 537 39,000  Level Kansas City Center
Wed 06:22:36 PM 38.0117 -95.4292 70° East 462 532 39,000  Level Kansas City Center
Wed 06:23:40 PM 38.0592 -95.2597 70° East 459 528 39,000  Level Kansas City Center
Wed 06:24:42 PM 38.0997 -95.1147 70° East 457 526 39,000  Level Kansas City Center
Wed 06:25:43 PM 38.1450 -94.9489 71° East 451 519 39,000  Level Kansas City Center
Wed 06:26:45 PM 38.1833 -94.8058 71° East 448 516 39,000  Level Kansas City Center
Wed 06:27:46 PM 38.1811 -94.6336 91° East 445 512 39,000  Level Kansas City Center
Wed 06:28:46 PM 38.1731 -94.4850 94° East 444 511 39,000  Level Kansas City Center
Wed 06:29:48 PM 38.1650 -94.3111 93° East 443 510 39,000 -432 Level Kansas City Center
Wed 06:30:51 PM 38.1589 -94.1597 93° East 447 514 38,100 -864 Descending Kansas City Center
Wed 06:31:53 PM 38.1436 -93.9942 97° East 459 528 37,200 -1,131 Descending Kansas City Center
Wed 06:32:53 PM 38.1217 -93.8336 100° East 462 532 35,800 -1,082 Descending Kansas City Center
Wed 06:33:55 PM 38.1081 -93.6711 96° East 462 532 35,000 -387 Descending Kansas City Center
Wed 06:34:57 PM 38.0947 -93.5131 96° East 454 522 35,000 -144 Level Kansas City Center
Wed 06:36:00 PM 38.0833 -93.3544 95° East 451 519 34,700 -1,161 Descending Kansas City Center
Wed 06:37:01 PM 38.0675 -93.1608 96° East 459 528 32,600 -2,066 Descending Kansas City Center
Wed 06:38:02 PM 38.0567 -92.9917 95° East 477 549 30,500 -2,262 Descending Kansas City Center
Wed 06:39:03 PM 38.0486 -92.8239 93° East 476 548 28,000 -2,129 Descending Kansas City Center
Wed 06:40:06 PM 38.0756 -92.6742 77° East 492 566 26,100 -1,680 Descending Kansas City Center
Wed 06:41:08 PM 38.1461 -92.4994 63° Northeast 464 534 24,500 -1,279 Descending Kansas City Center
Wed 06:42:08 PM 38.2056 -92.3647 61° Northeast 454 522 23,500 -984 Descending Kansas City Center
Wed 06:43:10 PM 38.2650 -92.2253 61° Northeast 456 525 22,500 -976 Descending Kansas City Center
Wed 06:44:11 PM 38.3236 -92.0878 61° Northeast 440 506 21,500 -960 Descending Kansas City Center
Wed 06:45:15 PM 38.3808 -91.9528 62° Northeast 435 501 20,500 -968 Descending Kansas City Center
Wed 06:46:15 PM 38.4364 -91.8203 62° Northeast 430 495 19,500 -976 Descending Kansas City Center
Wed 06:47:18 PM 38.4914 -91.6900 62° Northeast 423 487 18,500 -1,610 Descending Kansas City Center
Wed 06:48:18 PM 38.5578 -91.5333 62° Northeast 419 482 16,200 -2,182 Descending Kansas City Center
Wed 06:49:19 PM 38.6111 -91.4064 62° Northeast 412 474 14,100 -2,106 Descending Kansas City Center
Wed 06:49:52 PM 38.6369 -91.2833 75° East 397 457 12,900 -2,077 Descending FAA TRACON SMA TRACON (SMA)
Wed 06:50:11 PM 38.6536 -91.2453 61° Northeast 395 455 12,300 -1,846 Descending FAA TRACON SMA TRACON (SMA)
Wed 06:50:31 PM 38.6689 -91.2081 62° Northeast 391 450 11,700 -1,902 Descending FAA TRACON SMA TRACON (SMA)
Wed 06:50:52 PM 38.6850 -91.1603 67° East 384 442 11,000 -1,200 Descending FAA TRACON SMA TRACON (SMA)
Wed 06:51:11 PM 38.6906 -91.1211 80° East 371 427 10,900 -308 Descending FAA TRACON SMA TRACON (SMA)
Wed 06:51:31 PM 38.6917 -91.0822 88° East 360 414 10,800 -293 Descending FAA TRACON SMA TRACON (SMA)
Wed 06:51:52 PM 38.6906 -91.0353 92° East 345 397 10,700 -600 Descending FAA TRACON SMA TRACON (SMA)
Wed 06:52:11 PM 38.6911 -90.9992 89° East 333 383 10,400 -1,077 Descending FAA TRACON SMA TRACON (SMA)
Wed 06:52:31 PM 38.6900 -90.9636 92° East 326 375 10,000 -1,463 Descending FAA TRACON SMA TRACON (SMA)
Wed 06:52:52 PM 38.6894 -90.9197 91° East 320 368 9,400 -1,650 Descending FAA TRACON SMA TRACON (SMA)
Wed 06:53:11 PM 38.6950 -90.8853 78° East 321 369 8,900 -1,385 Descending FAA TRACON SMA TRACON (SMA)
Wed 06:53:31 PM 38.7078 -90.8542 62° Northeast 324 373 8,500 -1,317 Descending FAA TRACON SMA TRACON (SMA)
Wed 06:53:52 PM 38.7239 -90.8164 61° Northeast 320 368 8,000 -1,317 Descending FAA TRACON SMA TRACON (SMA)
Wed 06:54:12 PM 38.7383 -90.7867 58° Northeast 317 365 7,600 -1,231 Descending FAA TRACON SMA TRACON (SMA)
Wed 06:54:31 PM 38.7519 -90.7578 59° Northeast 314 361 7,200 -1,500 Descending FAA TRACON SMA TRACON (SMA)
Wed 06:54:52 PM 38.7700 -90.7217 57° Northeast 311 358 6,600 -1,610 Descending FAA TRACON SMA TRACON (SMA)
Wed 06:55:12 PM 38.7842 -90.6939 57° Northeast 306 352 6,100 -1,692 Descending FAA TRACON SMA TRACON (SMA)
Wed 06:55:31 PM 38.7956 -90.6647 63° Northeast 301 346 5,500 -1,800 Descending FAA TRACON SMA TRACON (SMA)
Wed 06:55:52 PM 38.8078 -90.6281 67° East 293 337 4,900 -1,610 Descending FAA TRACON SMA TRACON (SMA)
Wed 06:56:12 PM 38.8175 -90.5994 66° East 286 329 4,400 -1,463 Descending FAA TRACON SMA TRACON (SMA)
Wed 06:56:33 PM 38.8200 -90.5694 84° East 280 322 3,900 -1,200 Descending FAA TRACON SMA TRACON (SMA)
Wed 06:56:52 PM 38.8219 -90.5336 86° East 264 304 3,600 -615 Descending FAA TRACON SMA TRACON (SMA)
Wed 06:57:12 PM 38.8225 -90.5075 88° East 247 284 3,500 -600 Descending FAA TRACON SMA TRACON (SMA)
Wed 06:57:32 PM 38.8183 -90.4842 103° East 227 261 3,200 -1,385 Descending FAA TRACON SMA TRACON (SMA)
Wed 06:57:51 PM 38.8078 -90.4619 121° Southeast 195 224 2,600 -1,500 Descending FAA TRACON SMA TRACON (SMA)
Wed 06:58:12 PM 38.7994 -90.4456 123° Southeast 178 205 2,200 -1,024 Descending FAA TRACON SMA TRACON (SMA)
Wed 06:58:32 PM 38.7925 -90.4311 122° Southeast 164 189 1,900 -900 Descending FAA TRACON SMA TRACON (SMA)

Login

Don't have an account? Register now (free) for customized features, flight alerts, and more!